createdAt,value
2019-04-19T00:07:46.856Z,99.90
2019-04-19T00:45:07.576Z,99.90
2019-04-19T00:47:46.464Z,99.90
2019-04-19T00:55:54.435Z,99.90
2019-04-19T00:58:23.592Z,99.90
2019-04-19T01:00:49.241Z,99.90
2019-04-19T01:38:08.425Z,99.90
2019-04-19T01:41:03.292Z,99.90
2019-04-19T01:49:51.707Z,99.90
2019-04-19T01:55:18.601Z,99.90
2019-04-19T02:09:56.030Z,99.90
2019-04-19T02:15:25.040Z,99.90
2019-04-19T02:17:52.442Z,99.90
2019-04-19T02:20:43.412Z,99.90
2019-04-19T02:23:12.531Z,99.90
2019-04-19T02:28:38.346Z,99.90
2019-04-19T02:34:29.192Z,99.90
2019-04-19T02:39:57.392Z,99.90
2019-04-19T02:42:38.245Z,99.90
2019-04-19T02:48:03.876Z,99.90
2019-04-19T02:53:46.902Z,99.90
2019-04-19T03:05:32.093Z,99.90
2019-04-19T03:07:50.076Z,99.90
2019-04-19T03:16:36.941Z,99.90
2019-04-19T03:19:05.825Z,99.90
2019-04-19T03:21:41.779Z,99.90
2019-04-19T03:29:47.468Z,99.90
2019-04-19T03:35:19.214Z,99.90
2019-04-19T03:44:11.680Z,99.90
2019-04-19T04:03:28.029Z,99.90
2019-04-19T04:12:02.296Z,99.90
2019-04-19T04:15:04.717Z,99.90
2019-04-19T04:23:26.462Z,99.90
2019-04-19T04:25:59.276Z,99.90
2019-04-19T04:31:17.494Z,99.90
2019-04-19T04:42:20.201Z,99.90
2019-04-19T04:45:14.883Z,99.90
2019-04-19T04:50:42.246Z,99.90
2019-04-19T04:52:45.554Z,99.90
2019-04-19T04:55:43.666Z,99.90
2019-04-19T04:58:16.241Z,99.90
2019-04-19T05:00:48.458Z,99.90
2019-04-19T05:03:35.608Z,99.90
2019-04-19T05:06:23.333Z,99.90
2019-04-19T05:08:56.982Z,99.90
2019-04-19T05:11:25.694Z,99.90
2019-04-19T05:14:04.092Z,99.90
2019-04-19T05:19:12.828Z,99.90
2019-04-19T05:21:40.441Z,99.90
2019-04-19T05:24:21.104Z,99.90
2019-04-19T05:26:57.666Z,99.90
2019-04-19T05:29:23.033Z,99.90
2019-04-19T05:31:53.272Z,99.90
2019-04-19T05:34:36.327Z,99.90
2019-04-19T05:40:04.946Z,99.90
2019-04-19T05:42:43.411Z,99.90
2019-04-19T05:47:49.363Z,99.90
2019-04-19T05:50:34.705Z,99.90
2019-04-19T05:52:55.382Z,99.90
2019-04-19T05:55:13.462Z,99.90
2019-04-19T05:58:05.710Z,99.90
2019-04-19T06:00:47.333Z,99.90
2019-04-19T06:03:21.608Z,99.90
2019-04-19T06:11:38.256Z,99.90
2019-04-19T06:23:19.534Z,99.90
2019-04-19T06:26:34.810Z,99.90
2019-04-19T06:31:24.102Z,99.90
2019-04-19T06:33:49.883Z,99.90
2019-04-19T06:36:03.636Z,99.90
2019-04-19T06:38:28.837Z,99.90
2019-04-19T06:41:01.947Z,99.90
2019-04-19T06:43:38.600Z,99.90
2019-04-19T06:46:09.612Z,99.90
2019-04-19T06:48:28.729Z,99.90
2019-04-19T06:50:57.632Z,99.90
2019-04-19T06:53:30.955Z,99.90
2019-04-19T06:56:08.075Z,99.90
2019-04-19T06:58:27.612Z,99.90
2019-04-19T07:01:05.978Z,99.90
2019-04-19T07:03:21.981Z,99.90
2019-04-19T07:06:09.124Z,99.90
2019-04-19T07:11:11.226Z,99.90
2019-04-19T07:13:32.870Z,99.90
2019-04-19T07:16:14.865Z,99.90
2019-04-19T07:18:35.514Z,99.90
2019-04-19T07:21:12.191Z,99.90
2019-04-19T07:23:42.087Z,99.90
2019-04-19T07:26:16.970Z,99.90
2019-04-19T07:28:27.085Z,99.90
2019-04-19T07:31:01.127Z,99.90
2019-04-19T07:33:37.480Z,99.90
2019-04-19T07:36:19.059Z,99.90
2019-04-19T07:38:53.378Z,99.90
2019-04-19T07:41:18.370Z,99.90
2019-04-19T07:43:51.416Z,99.90
2019-04-19T07:46:31.753Z,99.90
2019-04-19T07:48:47.052Z,99.90
2019-04-19T07:53:50.926Z,99.90
2019-04-19T07:56:31.408Z,99.90
2019-04-19T08:04:38.109Z,99.90
2019-04-19T08:29:37.910Z,99.90
2019-04-19T08:31:58.006Z,99.90
2019-04-19T08:34:31.579Z,98.20
2019-04-19T08:40:15.502Z,88.50
2019-04-19T08:42:42.634Z,83.40
2019-04-19T08:45:01.822Z,77.80
2019-04-19T08:47:51.564Z,75.90
2019-04-19T08:50:19.984Z,74.80
2019-04-19T08:52:56.759Z,71.80
2019-04-19T08:55:34.784Z,71.10
2019-04-19T08:57:56.328Z,69.60
2019-04-19T09:00:51.950Z,67.50
2019-04-19T09:03:05.006Z,66.50
2019-04-19T09:05:45.860Z,68.80
2019-04-19T09:08:10.350Z,69.00
2019-04-19T09:10:41.455Z,68.60
2019-04-19T09:13:22.624Z,67.20
2019-04-19T09:15:41.263Z,66.50
2019-04-19T09:20:52.258Z,64.10
2019-04-19T09:23:20.906Z,64.40
2019-04-19T09:26:03.130Z,64.10
2019-04-19T09:28:46.067Z,60.80
2019-04-19T09:31:13.107Z,61.40
2019-04-19T09:33:29.609Z,61.90
2019-04-19T09:36:06.989Z,58.70
2019-04-19T09:38:50.149Z,59.10
2019-04-19T09:41:11.449Z,58.50
2019-04-19T09:43:58.707Z,58.50
2019-04-19T09:46:25.432Z,59.90
2019-04-19T09:49:10.907Z,58.00
2019-04-19T09:51:38.962Z,58.60
2019-04-19T09:54:16.787Z,59.00
2019-04-19T09:56:53.737Z,57.40
2019-04-19T09:59:22.356Z,58.60
2019-04-19T10:01:49.717Z,59.20
2019-04-19T10:04:12.787Z,58.50
2019-04-19T10:06:45.241Z,58.70
2019-04-19T10:09:18.714Z,57.90
2019-04-19T10:12:02.834Z,57.30
2019-04-19T10:14:30.565Z,59.40
2019-04-19T10:17:02.555Z,57.60
2019-04-19T10:19:30.732Z,57.80
2019-04-19T10:22:00.336Z,56.90
2019-04-19T10:24:29.600Z,57.90
2019-04-19T10:27:15.053Z,58.00
2019-04-19T10:29:46.177Z,57.30
2019-04-19T10:32:28.861Z,57.20
2019-04-19T10:34:56.721Z,56.30
2019-04-19T10:37:24.122Z,56.90
2019-04-19T10:39:52.132Z,56.00
2019-04-19T10:42:20.859Z,56.10
2019-04-19T10:44:52.136Z,56.40
2019-04-19T10:47:20.862Z,57.60
2019-04-19T10:49:55.460Z,55.90
2019-04-19T10:52:25.776Z,55.90
2019-04-19T10:54:55.490Z,56.40
2019-04-19T10:57:25.167Z,55.10
2019-04-19T10:59:59.016Z,55.80
2019-04-19T11:02:29.795Z,55.60
2019-04-19T11:04:58.621Z,56.10
2019-04-19T11:07:29.780Z,55.00
2019-04-19T11:09:58.256Z,55.90
2019-04-19T11:12:28.038Z,55.80
2019-04-19T11:14:55.136Z,55.20
2019-04-19T11:17:25.411Z,55.00
2019-04-19T11:20:11.169Z,54.40
2019-04-19T11:22:31.994Z,55.00
2019-04-19T11:25:02.338Z,53.10
2019-04-19T11:27:31.558Z,55.20
2019-04-19T11:30:00.479Z,53.00
2019-04-19T11:32:30.342Z,54.80
2019-04-19T11:34:58.903Z,53.60
2019-04-19T11:37:29.754Z,52.20
2019-04-19T11:40:03.401Z,53.70
2019-04-19T11:42:41.414Z,51.10
2019-04-19T11:45:13.322Z,52.40
2019-04-19T11:47:43.007Z,51.10
2019-04-19T11:50:13.849Z,50.80
2019-04-19T11:52:48.218Z,52.00
2019-04-19T11:55:24.346Z,51.20
2019-04-19T11:57:54.647Z,51.40
2019-04-19T12:00:40.173Z,51.40
2019-04-19T12:03:10.193Z,51.90
2019-04-19T12:05:37.896Z,50.80
2019-04-19T12:08:06.524Z,51.70
2019-04-19T12:10:37.038Z,52.30
2019-04-19T12:13:08.769Z,50.60
2019-04-19T12:15:38.088Z,51.90
2019-04-19T12:18:06.231Z,50.50
2019-04-19T12:20:33.845Z,49.90
2019-04-19T12:23:02.077Z,50.40
2019-04-19T12:25:35.568Z,50.00
2019-04-19T12:28:08.240Z,49.20
2019-04-19T12:30:44.310Z,49.00
2019-04-19T12:33:08.922Z,48.50
2019-04-19T12:35:41.236Z,47.10
2019-04-19T12:38:08.124Z,47.00
2019-04-19T12:40:44.136Z,49.00
2019-04-19T12:43:12.086Z,49.30
2019-04-19T12:45:42.067Z,48.30
2019-04-19T12:51:14.167Z,46.70
2019-04-19T12:53:46.805Z,47.90
2019-04-19T12:56:13.826Z,47.50
2019-04-19T12:58:42.275Z,48.10
2019-04-19T13:01:12.233Z,47.90
2019-04-19T13:03:44.668Z,47.90
2019-04-19T13:06:27.811Z,47.50
2019-04-19T13:08:57.165Z,46.30
2019-04-19T13:11:25.143Z,46.40
2019-04-19T13:13:54.771Z,46.30
2019-04-19T13:16:24.084Z,45.30
2019-04-19T13:19:00.500Z,45.50
2019-04-19T13:21:28.243Z,44.70
2019-04-19T13:23:58.423Z,46.60
2019-04-19T13:26:29.351Z,45.20
2019-04-19T13:28:57.673Z,45.60
2019-04-19T13:31:26.981Z,45.10
2019-04-19T13:34:01.257Z,45.10
2019-04-19T13:36:49.613Z,44.90
2019-04-19T13:39:32.544Z,44.70
2019-04-19T13:42:05.289Z,45.00
2019-04-19T13:44:41.093Z,45.50
2019-04-19T13:47:09.197Z,44.50
2019-04-19T13:49:54.372Z,45.60
2019-04-19T13:52:20.842Z,45.80
2019-04-19T13:54:50.511Z,44.70
2019-04-19T13:57:21.711Z,44.30
2019-04-19T13:59:56.279Z,43.10
2019-04-19T14:02:20.768Z,44.30
2019-04-19T14:04:49.411Z,44.50
2019-04-19T14:07:19.100Z,44.60
2019-04-19T14:12:51.318Z,44.40
2019-04-19T14:15:22.739Z,42.80
2019-04-19T14:20:48.773Z,45.20
2019-04-19T14:23:15.773Z,43.00
2019-04-19T14:25:51.517Z,43.00
2019-04-19T14:39:44.871Z,43.80
2019-04-19T14:42:24.655Z,41.90
2019-04-19T14:45:12.038Z,43.40
2019-04-19T14:50:52.800Z,41.70
2019-04-19T14:53:22.510Z,40.30
2019-04-19T14:58:47.534Z,42.70
2019-04-19T15:01:28.663Z,41.30
2019-04-19T15:04:03.025Z,41.00
2019-04-19T15:06:33.506Z,42.00
2019-04-19T15:09:12.114Z,41.60
2019-04-19T15:11:50.954Z,39.70
2019-04-19T15:14:26.195Z,41.60
2019-04-19T15:16:56.940Z,43.00
2019-04-19T15:19:33.753Z,41.40
2019-04-19T15:22:01.820Z,41.20
2019-04-19T15:33:02.492Z,41.80
2019-04-19T15:35:39.608Z,41.00
2019-04-19T15:38:07.864Z,40.40
2019-04-19T15:40:52.119Z,41.70
2019-04-19T15:43:21.623Z,41.60
2019-04-19T15:48:44.314Z,42.60
2019-04-19T15:54:03.809Z,42.10
2019-04-19T15:56:44.481Z,42.20
2019-04-19T15:59:17.091Z,41.70
2019-04-19T16:04:42.170Z,42.10
2019-04-19T16:07:28.189Z,43.20
2019-04-19T16:10:09.961Z,42.90
2019-04-19T16:12:57.934Z,43.10
2019-04-19T16:15:35.848Z,42.50
2019-04-19T16:18:20.038Z,43.00
2019-04-19T16:20:52.201Z,42.80
2019-04-19T16:23:23.870Z,43.70
2019-04-19T16:26:08.930Z,43.60
2019-04-19T16:28:53.656Z,42.30
2019-04-19T16:31:22.343Z,42.50
2019-04-19T16:33:56.365Z,44.20
2019-04-19T16:36:26.521Z,43.20
2019-04-19T16:38:58.784Z,45.50
2019-04-19T16:41:30.939Z,45.00
2019-04-19T16:44:15.716Z,44.70
2019-04-19T16:46:59.659Z,43.40
2019-04-19T16:49:29.182Z,43.70
2019-04-19T16:52:16.179Z,44.80
2019-04-19T16:57:34.958Z,43.60
2019-04-19T17:03:01.291Z,45.80
2019-04-19T17:05:34.864Z,45.20
2019-04-19T17:08:22.570Z,45.20
2019-04-19T17:10:53.426Z,45.00
2019-04-19T17:22:11.426Z,45.90
2019-04-19T17:24:38.973Z,44.70
2019-04-19T17:32:50.262Z,45.40
2019-04-19T17:35:20.491Z,45.40
2019-04-19T17:37:47.876Z,44.80
2019-04-19T17:40:16.554Z,44.30
2019-04-19T17:42:44.573Z,44.30
2019-04-19T17:45:16.071Z,41.90
2019-04-19T17:47:44.511Z,42.30
2019-04-19T17:50:16.846Z,44.80
2019-04-19T17:55:43.453Z,45.80
2019-04-19T17:58:15.190Z,46.00
2019-04-19T18:03:37.367Z,47.20
2019-04-19T18:09:09.636Z,50.90
2019-04-19T18:14:31.866Z,50.90
2019-04-19T18:17:08.609Z,51.20
2019-04-19T18:25:39.170Z,50.60
2019-04-19T20:31:54.923Z,77.80
2019-04-19T20:34:27.556Z,79.60
2019-04-19T20:36:57.573Z,81.50
2019-04-19T20:39:28.788Z,85.30
2019-04-19T20:42:14.393Z,90.10
2019-04-19T20:47:48.951Z,93.90
2019-04-19T20:53:21.542Z,99.00
2019-04-19T20:58:46.474Z,99.90
2019-04-19T21:01:14.845Z,99.90
2019-04-19T21:06:40.221Z,99.90
2019-04-19T21:09:30.444Z,99.90
2019-04-19T21:12:17.075Z,99.90
2019-04-19T21:15:06.772Z,99.90
2019-04-19T21:17:37.465Z,99.90
2019-04-19T21:20:04.667Z,99.90
2019-04-19T21:22:36.400Z,99.90
2019-04-19T21:25:13.951Z,99.90
2019-04-19T21:27:33.637Z,99.90
2019-04-19T21:30:05.922Z,99.90
2019-04-19T21:32:36.140Z,99.90
2019-04-19T21:38:05.911Z,99.90
2019-04-19T21:40:36.199Z,99.90
2019-04-19T21:45:53.541Z,99.90
2019-04-19T21:51:10.788Z,99.90
2019-04-19T21:53:51.710Z,99.90
2019-04-19T21:56:25.543Z,99.90
2019-04-19T21:58:57.441Z,99.90
2019-04-19T22:01:26.093Z,99.90
2019-04-19T22:06:57.081Z,99.90
2019-04-19T22:09:27.487Z,99.90
2019-04-19T22:11:58.468Z,99.90
2019-04-19T22:14:31.307Z,99.90
2019-04-19T22:17:05.524Z,99.90
2019-04-19T22:19:53.271Z,99.90
2019-04-19T22:22:38.788Z,99.90
2019-04-19T22:25:38.391Z,99.90
2019-04-19T22:28:05.490Z,99.90
2019-04-19T22:30:48.177Z,99.90
2019-04-19T22:42:01.927Z,99.90
2019-04-19T22:44:34.904Z,99.90
2019-04-19T22:55:36.476Z,99.90
2019-04-19T23:09:39.202Z,99.90
2019-04-19T23:12:10.254Z,99.90
2019-04-19T23:20:31.206Z,99.90
2019-04-19T23:26:10.680Z,99.90
2019-04-19T23:31:17.268Z,99.90
2019-04-19T23:36:35.901Z,99.90
2019-04-19T23:41:53.666Z,99.90
2019-04-19T23:44:23.711Z,99.90
2019-04-19T23:46:57.123Z,99.90
2019-04-19T23:49:40.458Z,99.90
2019-04-19T23:52:14.937Z,99.90
2019-04-19T23:54:44.037Z,99.90
2019-04-19T23:57:25.245Z,99.90
